Details for Flybe at EGPH




Go Back


Latest METAR
Local Time

EGPH 240750Z 07006KT 030V110 8000 OVC006 08/07 Q1027

24/05/2018, 09:03:45

Description
Results
Flybe Logo
Number of Pilots based at EGPH
0 Pilots Based here
Number of Flybe Flights Departed from EGPH
14 Flights Departed
Number of Flybe Flights Arrived at EGPH
13 Flights Arrived
Number of Flybe Schedules Departing from EGPH
46 Schedules
Number of Flybe Schedules Arriving at EGPH
47 Schedules
Number of Flybe Schedules Departing from EGPH availible today
34 Schedules Today
Number of Flybe Schedules Arriving at EGPH availible today
34 Schedules Today
Average Landing Rate at EGPH
-242 fpm
Flybe Average Landing Rate at EGPH
-184 fpm
Total Fuel Purchased at EGPH by Flybe
12,273.76 kgs / 27,058.73 lbs

Pilots Based at EGPH


Pilot ID
Pilot Name
Pilot Rank
No. of Flights
No. of Flying Hours
There are no pilots assigned to this hub!   Will you be the first?
Content